CMA CGM Tigris — 9HA3801 — position and weather

sailwx.info

Track history (hours):
 
Tides and Currents Weather Stations Pressure Air Temp Water Temp Dewpoint Dewpoint Depression Visibility Wind Speed Wind Dir Waves Ship Positions

CMA CGM Tigris

Last reported at 2018-Jan-31 14:39 UTC. Time now 2018-Feb-25 09:54 UTC.
Position N 30°30' W 116°40'.
Warning: this ship's position is 24 days out of date.

Length 300 m; draft 12.3 m.

Type: Ship (hazmat cat A). MMSI: 256062000.

Date/timePositionNaut miles runAvg speedWind from/ knotsBaromVisibWave heightAir tempDewpointWater temp
2018-Jan-31 14:39N 30°30' W 116°40'317.9
2018-Jan-31 14:30N 30°32' W 116°41'228 4.5
2018-Jan-29 11:40N 30°36' W 121°06'317.4
2018-Jan-29 11:30N 30°36' W 121°09'917.4
2018-Jan-29 11:00N 30°34' W 121°19'11116.9
2018-Jan-29 04:27N 30°56' W 123°26'1917.4
2018-Jan-29 03:22N 31°02' W 123°46'617.4
2018-Jan-29 03:00N 31°05' W 123°53'917.5
2018-Jan-29 02:30N 31°08' W 124°03'917.6
2018-Jan-29 02:00N 31°10' W 124°13'917.3
2018-Jan-29 01:30N 31°13' W 124°23'917.5
2018-Jan-29 01:00N 31°16' W 124°32'1117.5
2018-Jan-29 00:22N 31°20' W 124°44'617.6
2018-Jan-29 00:00N 31°22' W 124°51'917.3
2018-Jan-28 23:30N 31°25' W 125°01'1417.2
2018-Jan-28 22:40N 31°30' W 125°17'317.1
2018-Jan-28 22:30N 31°31' W 125°20'917.2
2018-Jan-28 22:00N 31°34' W 125°29'917.2
2018-Jan-28 21:30N 31°36' W 125°39'917.5
2018-Jan-28 21:00N 31°39' W 125°48'3617.4
2018-Jan-28 18:56N 31°51' W 126°28'  
Track history (hours):
 
Tides and Currents Weather Stations Pressure Air Temp Water Temp Dewpoint Dewpoint Depression Visibility Wind Speed Wind Dir Waves Ship Positions

CMA CGM Tigris

Last reported at 2018-Jan-31 14:39 UTC. Time now 2018-Feb-25 09:54 UTC.
Position N 30°30' W 116°40'.
Warning: this ship's position is 24 days out of date.

Length 300 m; draft 12.3 m.

Type: Ship (hazmat cat A). MMSI: 256062000.

Date/timePositionNaut miles runAvg speedWind from/ knotsBaromVisibWave heightAir tempDewpointWater temp
2018-Jan-31 14:39N 30°30' W 116°40'317.9
2018-Jan-31 14:30N 30°32' W 116°41'228 4.5
2018-Jan-29 11:40N 30°36' W 121°06'317.4
2018-Jan-29 11:30N 30°36' W 121°09'917.4
2018-Jan-29 11:00N 30°34' W 121°19'11116.9
2018-Jan-29 04:27N 30°56' W 123°26'1917.4
2018-Jan-29 03:22N 31°02' W 123°46'617.4
2018-Jan-29 03:00N 31°05' W 123°53'917.5
2018-Jan-29 02:30N 31°08' W 124°03'917.6
2018-Jan-29 02:00N 31°10' W 124°13'917.3
2018-Jan-29 01:30N 31°13' W 124°23'917.5
2018-Jan-29 01:00N 31°16' W 124°32'1117.5
2018-Jan-29 00:22N 31°20' W 124°44'617.6
2018-Jan-29 00:00N 31°22' W 124°51'917.3
2018-Jan-28 23:30N 31°25' W 125°01'1417.2
2018-Jan-28 22:40N 31°30' W 125°17'317.1
2018-Jan-28 22:30N 31°31' W 125°20'917.2
2018-Jan-28 22:00N 31°34' W 125°29'917.2
2018-Jan-28 21:30N 31°36' W 125°39'917.5
2018-Jan-28 21:00N 31°39' W 125°48'3617.4
2018-Jan-28 18:56N 31°51' W 126°28'  

Dump ship's entire track history